Time;durP1;ratioP1;P1;durP2;ratioP2;P2;SDS_P1;SDS_P2;PMS_P1;PMS_P2;Temp;Humidity;BMP_temperature;BMP_pressure;BME280_temperature;BME280_humidity;BME280_pressure;Samples;Min_cycle;Max_cycle;Signal;HPM_P1;HPM_P2
2022/04/04 00:00:06;;;;;;;12.90;5.07;;;4.20;99.90;;;;;;5051637;28;20477;-79
2022/04/04 00:02:31;;;;;;;6.45;4.07;;;4.30;99.90;;;;;;5052632;28;20037;-76
2022/04/04 00:04:57;;;;;;;9.48;5.55;;;4.20;99.90;;;;;;5052919;28;20028;-80
2022/04/04 00:07:23;;;;;;;11.15;4.65;;;4.30;99.90;;;;;;5052526;28;20110;-78
2022/04/04 00:09:49;;;;;;;11.80;5.18;;;4.20;99.90;;;;;;5052866;28;20024;-78
2022/04/04 00:12:15;;;;;;;11.15;5.50;;;4.10;99.90;;;;;;5052607;28;20468;-79
2022/04/04 00:14:41;;;;;;;7.60;3.72;;;4.20;99.90;;;;;;5052580;28;20431;-77
2022/04/04 00:17:07;;;;;;;10.93;5.03;;;4.20;99.90;;;;;;5051417;28;20068;-75
2022/04/04 00:19:33;;;;;;;10.70;4.93;;;4.20;99.90;;;;;;5052594;28;20033;-79
2022/04/04 00:21:59;;;;;;;11.35;4.45;;;4.10;99.90;;;;;;5052571;28;20041;-79
2022/04/04 00:24:25;;;;;;;8.70;5.00;;;4.00;99.90;;;;;;5051409;28;20041;-79
2022/04/04 00:26:51;;;;;;;12.98;4.68;;;4.00;99.90;;;;;;5051453;28;20125;-79
2022/04/04 00:29:18;;;;;;;10.07;5.45;;;4.00;99.90;;;;;;5050893;28;20120;-78
2022/04/04 00:31:44;;;;;;;10.15;6.15;;;4.00;99.90;;;;;;5052668;28;20033;-76
2022/04/04 00:34:10;;;;;;;7.90;4.82;;;4.00;99.90;;;;;;5052446;28;20029;-78
2022/04/04 00:36:36;;;;;;;8.40;5.30;;;3.90;99.90;;;;;;5052629;28;20379;-77
2022/04/04 00:39:02;;;;;;;10.52;5.22;;;3.90;99.90;;;;;;5052468;28;20295;-79
2022/04/04 00:41:28;;;;;;;12.68;5.68;;;3.90;99.90;;;;;;5052324;28;20116;-78
2022/04/04 00:43:54;;;;;;;7.40;5.05;;;3.80;99.90;;;;;;5056028;28;20116;-79
2022/04/04 00:46:20;;;;;;;14.65;5.55;;;3.80;99.90;;;;;;5056464;28;20158;-73
2022/04/04 00:48:46;;;;;;;10.07;5.82;;;3.80;99.90;;;;;;5056252;28;20104;-77
2022/04/04 00:51:12;;;;;;;11.85;5.97;;;3.80;99.90;;;;;;5056416;28;20036;-78
2022/04/04 00:53:39;;;;;;;11.07;5.70;;;4.00;99.90;;;;;;5056033;28;20388;-79
2022/04/04 00:56:07;;;;;;;9.40;6.03;;;3.90;99.90;;;;;;5056339;28;20025;-78
2022/04/04 00:58:36;;;;;;;7.10;4.85;;;3.90;99.90;;;;;;5055837;28;20115;-77
2022/04/04 01:01:03;;;;;;;10.35;5.95;;;3.90;99.90;;;;;;5055167;28;20492;-78
2022/04/04 01:03:28;;;;;;;9.10;5.60;;;3.90;99.90;;;;;;5054531;28;20171;-75
2022/04/04 01:05:58;;;;;;;9.32;4.47;;;3.80;99.90;;;;;;5056176;28;20033;-77
2022/04/04 01:08:24;;;;;;;10.70;5.75;;;3.70;99.90;;;;;;5055781;28;20048;-78
2022/04/04 01:10:51;;;;;;;9.25;5.28;;;3.80;99.90;;;;;;5056081;28;20025;-77
2022/04/04 01:13:17;;;;;;;10.38;5.00;;;3.90;99.90;;;;;;5054327;28;20037;-78
2022/04/04 01:15:42;;;;;;;13.52;5.60;;;3.90;99.90;;;;;;5055809;28;20032;-78
2022/04/04 01:18:09;;;;;;;7.85;5.40;;;3.80;99.90;;;;;;5055800;28;20083;-78
2022/04/04 01:20:36;;;;;;;7.95;5.50;;;3.90;99.90;;;;;;5055722;28;20484;-79
2022/04/04 01:23:04;;;;;;;8.30;5.18;;;4.00;99.90;;;;;;5055831;28;20048;-77
2022/04/04 01:25:31;;;;;;;11.77;5.75;;;4.00;99.90;;;;;;5037281;28;20037;-76
2022/04/04 01:28:00;;;;;;;12.88;5.07;;;3.90;99.90;;;;;;5055842;28;20044;-77
2022/04/04 01:30:27;;;;;;;21.40;6.05;;;3.70;99.90;;;;;;5055490;28;20112;-76
2022/04/04 01:32:54;;;;;;;6.90;4.53;;;3.40;99.90;;;;;;5055649;28;20021;-78
2022/04/04 01:35:21;;;;;;;10.77;6.38;;;3.40;99.90;;;;;;5055376;28;20116;-78
2022/04/04 01:37:47;;;;;;;7.78;4.97;;;3.40;99.90;;;;;;5054476;28;20382;-78
2022/04/04 01:40:14;;;;;;;16.80;5.75;;;3.30;99.90;;;;;;5054816;28;20020;-74
2022/04/04 01:42:41;;;;;;;10.52;5.43;;;3.30;99.90;;;;;;5055545;28;20389;-78
2022/04/04 01:45:08;;;;;;;13.20;6.40;;;3.20;99.90;;;;;;5055603;28;20025;-78
2022/04/04 01:47:34;;;;;;;12.55;7.03;;;3.20;99.90;;;;;;5055114;28;20060;-79
2022/04/04 01:50:01;;;;;;;11.88;5.60;;;3.20;99.90;;;;;;5053958;28;20028;-76
2022/04/04 01:52:27;;;;;;;11.70;6.78;;;3.20;99.90;;;;;;5055248;28;20037;-76
2022/04/04 01:54:53;;;;;;;9.52;6.50;;;3.20;99.90;;;;;;5053904;28;20108;-78
2022/04/04 01:57:20;;;;;;;14.75;6.50;;;3.30;99.90;;;;;;5055087;28;20480;-77
2022/04/04 01:59:46;;;;;;;12.55;6.53;;;3.40;99.90;;;;;;5054931;28;20375;-78
2022/04/04 02:02:12;;;;;;;12.43;7.00;;;3.30;99.90;;;;;;5054854;28;20036;-76
2022/04/04 02:04:38;;;;;;;8.43;5.90;;;3.30;99.90;;;;;;5054786;28;20492;-75
2022/04/04 02:07:07;;;;;;;9.45;6.05;;;3.20;99.90;;;;;;5055058;28;20032;-78
2022/04/04 02:09:34;;;;;;;10.63;6.57;;;3.30;99.90;;;;;;5054559;28;20436;-77
2022/04/04 02:12:00;;;;;;;14.52;7.18;;;3.30;99.90;;;;;;5053760;28;20086;-78
2022/04/04 02:14:25;;;;;;;10.88;6.07;;;3.30;99.90;;;;;;5053631;28;20075;-79
2022/04/04 02:16:51;;;;;;;12.10;6.65;;;3.20;99.90;;;;;;5054814;28;20025;-78
2022/04/04 02:19:17;;;;;;;12.40;7.50;;;3.20;99.90;;;;;;5054727;28;20536;-77
2022/04/04 02:21:44;;;;;;;12.80;6.93;;;3.20;99.90;;;;;;5054440;28;20033;-77
2022/04/04 02:24:10;;;;;;;12.15;8.23;;;3.30;99.90;;;;;;5054418;28;20108;-78
2022/04/04 02:26:36;;;;;;;14.98;7.65;;;3.30;99.90;;;;;;5035712;28;20042;-77
2022/04/04 02:29:03;;;;;;;17.58;7.55;;;3.30;99.90;;;;;;5034792;28;20025;-79
2022/04/04 02:31:29;;;;;;;12.57;6.38;;;3.20;99.90;;;;;;5034295;28;20029;-78
2022/04/04 02:33:55;;;;;;;13.77;6.10;;;3.10;99.90;;;;;;5034511;28;20106;-79
2022/04/04 02:36:21;;;;;;;13.43;8.23;;;3.10;99.90;;;;;;5034252;28;20104;-78
2022/04/04 02:38:48;;;;;;;16.35;7.82;;;3.10;99.90;;;;;;5032884;28;20446;-78
2022/04/04 02:41:13;;;;;;;10.50;7.07;;;3.10;99.90;;;;;;5034210;28;20084;-77
2022/04/04 02:43:39;;;;;;;13.48;7.70;;;3.10;99.90;;;;;;5034408;28;20030;-78
2022/04/04 02:46:05;;;;;;;22.15;8.85;;;3.20;99.90;;;;;;5034141;28;20064;-78
2022/04/04 02:48:32;;;;;;;14.05;7.70;;;3.20;99.90;;;;;;5050150;28;20021;-78
2022/04/04 02:50:57;;;;;;;17.00;7.78;;;3.30;99.90;;;;;;5054061;28;20539;-77
2022/04/04 02:53:23;;;;;;;17.13;8.30;;;3.30;99.90;;;;;;5053851;28;20025;-78
2022/04/04 02:58:33;;;;;;;16.50;8.13;;;3.30;99.90;;;;;;5053711;28;20111;-77
2022/04/04 03:00:59;;;;;;;15.15;6.82;;;3.40;99.90;;;;;;5053724;28;20104;-78
2022/04/04 03:03:25;;;;;;;12.52;7.18;;;3.30;99.90;;;;;;5053717;28;20037;-77
2022/04/04 03:05:51;;;;;;;16.95;7.95;;;3.30;99.90;;;;;;5053677;28;20029;-77
2022/04/04 03:08:17;;;;;;;19.85;8.15;;;3.30;99.90;;;;;;5053285;28;20184;-77
2022/04/04 03:10:43;;;;;;;13.50;7.68;;;3.20;99.90;;;;;;5053718;28;20064;-78
2022/04/04 03:13:08;;;;;;;18.13;8.48;;;3.30;99.90;;;;;;5053673;28;20371;-78
2022/04/04 03:15:36;;;;;;;16.30;7.80;;;3.30;99.90;;;;;;5052359;28;20024;-75
2022/04/04 03:18:03;;;;;;;13.57;8.18;;;3.30;99.90;;;;;;5053392;28;20389;-78
2022/04/04 03:20:30;;;;;;;13.38;7.38;;;3.40;99.90;;;;;;5053436;28;20074;-76
2022/04/04 03:22:57;;;;;;;14.68;8.20;;;3.30;99.90;;;;;;5052090;28;20047;-75
2022/04/04 03:25:23;;;;;;;17.52;8.57;;;3.40;99.90;;;;;;5051989;28;20163;-78
2022/04/04 03:27:50;;;;;;;13.20;7.93;;;3.40;99.90;;;;;;5053327;28;20029;-77
2022/04/04 03:30:23;;;;;;;16.67;6.70;;;3.40;99.90;;;;;;5053527;28;20025;-78
2022/04/04 03:32:49;;;;;;;14.35;7.22;;;3.30;99.90;;;;;;5053180;28;20557;-72
2022/04/04 03:35:17;;;;;;;15.73;8.75;;;3.30;99.90;;;;;;5053305;28;20028;-78
2022/04/04 03:37:50;;;;;;;17.50;8.85;;;3.30;99.90;;;;;;5052789;28;20041;-76
2022/04/04 03:40:18;;;;;;;11.85;8.15;;;3.30;99.90;;;;;;5053048;28;20040;-78
2022/04/04 03:42:47;;;;;;;17.35;8.45;;;3.40;99.90;;;;;;5053132;28;20055;-75
2022/04/04 03:45:14;;;;;;;18.33;8.07;;;3.40;99.90;;;;;;5053191;28;20381;-74
2022/04/04 03:47:42;;;;;;;14.70;7.88;;;3.60;99.90;;;;;;5052863;28;20017;-76
2022/04/04 03:50:09;;;;;;;17.10;8.75;;;3.50;99.90;;;;;;5051926;28;20123;-79
2022/04/04 03:52:34;;;;;;;12.43;7.38;;;3.60;99.90;;;;;;5052634;28;20066;-78
2022/04/04 03:55:02;;;;;;;14.48;8.27;;;3.60;99.90;;;;;;5053162;28;20056;-78
2022/04/04 03:57:27;;;;;;;16.40;7.70;;;3.60;99.90;;;;;;5052817;28;20028;-79
2022/04/04 03:59:53;;;;;;;15.13;8.07;;;3.60;99.90;;;;;;5053067;28;20025;-79
2022/04/04 04:02:19;;;;;;;12.68;8.40;;;3.70;99.90;;;;;;5052706;28;20448;-74
2022/04/04 04:04:45;;;;;;;14.95;7.85;;;3.80;99.90;;;;;;5052859;28;20025;-79
2022/04/04 04:07:15;;;;;;;15.95;8.18;;;3.70;99.90;;;;;;5052478;28;20424;-78
2022/04/04 04:09:43;;;;;;;15.38;8.25;;;3.70;99.90;;;;;;5052849;28;20057;-79
2022/04/04 04:12:10;;;;;;;10.57;6.93;;;3.80;99.90;;;;;;5052713;28;20060;-81
2022/04/04 04:14:37;;;;;;;15.27;8.80;;;3.70;99.90;;;;;;5052810;28;20027;-81
2022/04/04 04:17:02;;;;;;;12.20;8.15;;;3.80;99.90;;;;;;5054764;28;20029;-80
2022/04/04 04:22:13;;;;;;;16.63;7.75;;;3.80;99.90;;;;;;5059243;28;20056;-79
2022/04/04 04:24:39;;;;;;;16.17;8.05;;;3.90;99.90;;;;;;5059242;28;20462;-78
2022/04/04 04:27:05;;;;;;;11.85;7.50;;;3.90;99.90;;;;;;5059410;28;20120;-78
2022/04/04 04:29:30;;;;;;;16.55;8.43;;;3.90;99.90;;;;;;5057969;28;20082;-76
2022/04/04 04:31:56;;;;;;;17.25;8.00;;;3.80;99.90;;;;;;5058027;28;20116;-78
2022/04/04 04:34:22;;;;;;;16.02;7.93;;;3.90;99.90;;;;;;5058901;28;20032;-77
2022/04/04 04:36:48;;;;;;;14.77;8.13;;;3.90;99.90;;;;;;5058149;28;20545;-79
2022/04/04 04:39:13;;;;;;;13.50;8.48;;;3.90;99.90;;;;;;5059265;28;20033;-79
2022/04/04 04:41:39;;;;;;;15.10;8.05;;;4.00;99.90;;;;;;5059250;28;20040;-78
2022/04/04 04:44:05;;;;;;;14.88;8.68;;;4.10;99.90;;;;;;5059308;28;20024;-78
2022/04/04 04:46:31;;;;;;;14.93;8.98;;;4.00;99.90;;;;;;5059135;28;20028;-79
2022/04/04 04:48:58;;;;;;;12.27;7.88;;;4.20;99.90;;;;;;5058839;28;20025;-79
2022/04/04 04:51:24;;;;;;;18.17;8.68;;;4.10;99.90;;;;;;5059069;28;20029;-78
2022/04/04 04:53:49;;;;;;;8.80;5.30;;;4.00;99.90;;;;;;5059097;28;20470;-78
2022/04/04 04:56:15;;;;;;;21.92;8.50;;;4.00;99.90;;;;;;5059166;28;20024;-78
2022/04/04 04:58:41;;;;;;;13.77;7.95;;;4.10;99.90;;;;;;5058764;28;20027;-79
2022/04/04 05:01:06;;;;;;;16.10;8.98;;;4.10;99.90;;;;;;5059145;28;20043;-78
2022/04/04 05:03:34;;;;;;;16.27;8.93;;;4.10;99.90;;;;;;5058385;28;20033;-74
2022/04/04 05:06:00;;;;;;;13.88;8.25;;;4.20;99.90;;;;;;5059207;28;20025;-78
2022/04/04 05:08:26;;;;;;;13.90;8.13;;;4.20;99.90;;;;;;5058581;28;20029;-78
2022/04/04 05:10:52;;;;;;;18.17;7.82;;;4.20;99.90;;;;;;5059048;28;20040;-79
2022/04/04 05:13:18;;;;;;;14.07;8.70;;;4.20;99.90;;;;;;5058965;28;20017;-75
2022/04/04 05:15:45;;;;;;;15.40;8.20;;;4.30;99.90;;;;;;5058874;28;20071;-78
2022/04/04 05:18:11;;;;;;;14.25;8.43;;;4.30;99.90;;;;;;5057216;28;20070;-77
2022/04/04 05:20:37;;;;;;;17.20;9.63;;;4.40;99.90;;;;;;5057438;28;20045;-79
2022/04/04 05:23:02;;;;;;;16.77;8.55;;;4.40;99.90;;;;;;5058965;28;20040;-79
2022/04/04 05:25:28;;;;;;;13.60;8.68;;;4.50;99.90;;;;;;5058587;28;20033;-79
2022/04/04 05:27:56;;;;;;;15.75;8.40;;;4.50;99.90;;;;;;5058273;28;20062;-78
2022/04/04 05:30:23;;;;;;;16.73;8.95;;;4.50;99.90;;;;;;5054716;28;20013;-78
2022/04/04 05:32:49;;;;;;;18.45;8.35;;;4.50;99.90;;;;;;5055282;28;20032;-77
2022/04/04 05:35:16;;;;;;;14.60;8.90;;;4.50;99.90;;;;;;5054256;28;20049;-79
2022/04/04 05:37:42;;;;;;;13.32;7.72;;;4.50;99.90;;;;;;5055522;28;20027;-79
2022/04/04 05:40:09;;;;;;;16.00;8.27;;;4.40;99.90;;;;;;5055254;28;20490;-78
2022/04/04 05:42:35;;;;;;;17.73;8.95;;;4.50;99.90;;;;;;5055304;28;20033;-79
2022/04/04 05:45:01;;;;;;;18.40;8.35;;;4.70;99.90;;;;;;5055283;28;20025;-79
2022/04/04 05:47:27;;;;;;;12.27;8.25;;;4.60;99.90;;;;;;5054822;28;20078;-74
2022/04/04 05:49:53;;;;;;;18.33;8.82;;;4.60;99.90;;;;;;5053875;28;20506;-79
2022/04/04 05:52:23;;;;;;;14.52;7.20;;;4.70;99.90;;;;;;5055189;28;20493;-76
2022/04/04 05:54:57;;;;;;;13.40;8.27;;;4.60;99.90;;;;;;5055077;28;20096;-77
2022/04/04 05:57:35;;;;;;;13.52;6.80;;;4.60;99.90;;;;;;5053781;28;20025;-77
2022/04/04 06:00:04;;;;;;;17.38;9.35;;;4.60;99.90;;;;;;5037131;28;20066;-80
2022/04/04 06:02:37;;;;;;;20.60;10.88;;;4.70;99.90;;;;;;5053306;28;20104;-78
2022/04/04 06:05:08;;;;;;;13.98;9.00;;;4.70;99.90;;;;;;5054931;28;20496;-80
2022/04/04 06:07:35;;;;;;;13.65;7.95;;;4.80;99.90;;;;;;5054823;28;20164;-80
2022/04/04 06:10:02;;;;;;;15.13;8.60;;;4.80;99.90;;;;;;5054791;28;20017;-80
2022/04/04 06:12:28;;;;;;;16.55;8.88;;;4.80;99.90;;;;;;5054943;28;20064;-80
2022/04/04 06:14:53;;;;;;;19.08;9.05;;;4.90;99.90;;;;;;5054564;28;20033;-77
2022/04/04 06:17:19;;;;;;;20.38;9.45;;;4.90;99.90;;;;;;5054523;28;20029;-80
2022/04/04 06:19:45;;;;;;;13.70;8.00;;;5.00;99.90;;;;;;5054703;28;20032;-80
2022/04/04 06:22:11;;;;;;;16.40;8.52;;;4.90;99.90;;;;;;5053325;28;20037;-77
2022/04/04 06:24:38;;;;;;;16.73;8.52;;;4.90;99.90;;;;;;5054428;28;20072;-78
2022/04/04 06:27:04;;;;;;;11.82;5.78;;;4.90;99.90;;;;;;5054367;28;20393;-77
2022/04/04 06:29:30;;;;;;;15.45;9.57;;;4.80;99.90;;;;;;5054734;28;20021;-78
2022/04/04 06:31:56;;;;;;;12.90;8.25;;;5.00;99.90;;;;;;5036378;28;20036;-79
2022/04/04 06:34:22;;;;;;;17.23;8.35;;;5.00;99.90;;;;;;5054618;28;20053;-80
2022/04/04 06:36:48;;;;;;;13.65;8.10;;;5.00;99.90;;;;;;5054070;28;20063;-80
2022/04/04 06:39:15;;;;;;;13.68;6.85;;;5.10;99.90;;;;;;5054474;28;20085;-79
2022/04/04 06:41:41;;;;;;;15.50;8.90;;;5.20;99.90;;;;;;5053742;28;20033;-80
2022/04/04 06:44:07;;;;;;;17.92;9.30;;;5.20;99.90;;;;;;5053093;28;20036;-80
2022/04/04 06:46:36;;;;;;;20.10;8.10;;;5.20;99.90;;;;;;5053713;28;20040;-79
2022/04/04 06:49:03;;;;;;;18.55;8.90;;;5.30;99.90;;;;;;5054040;28;20032;-78
2022/04/04 06:51:28;;;;;;;14.88;8.75;;;5.40;99.90;;;;;;5053791;28;20372;-78
2022/04/04 06:53:54;;;;;;;14.90;8.40;;;5.50;99.90;;;;;;5052479;28;20520;-79
2022/04/04 06:56:20;;;;;;;19.20;9.98;;;5.60;99.90;;;;;;5053925;28;20021;-79
2022/04/04 06:58:45;;;;;;;13.05;8.70;;;5.70;99.90;;;;;;5052742;28;20057;-78
2022/04/04 07:01:12;;;;;;;15.15;8.73;;;5.80;99.90;;;;;;5052217;28;20051;-79
2022/04/04 07:03:37;;;;;;;13.55;7.95;;;5.90;99.90;;;;;;5053740;28;20074;-76
2022/04/04 07:06:03;;;;;;;19.00;8.43;;;6.10;99.90;;;;;;5053632;28;20028;-77
2022/04/04 07:08:29;;;;;;;14.68;8.80;;;6.10;99.90;;;;;;5052720;28;20033;-77
2022/04/04 07:10:55;;;;;;;15.10;8.65;;;6.10;99.90;;;;;;5053314;28;20029;-79
2022/04/04 07:13:21;;;;;;;12.23;7.07;;;6.10;99.90;;;;;;5053762;28;20017;-77
2022/04/04 07:15:47;;;;;;;10.13;6.55;;;6.30;99.90;;;;;;5053336;28;20037;-72
2022/04/04 07:18:12;;;;;;;18.05;6.85;;;6.30;99.90;;;;;;5053533;28;20134;-73
2022/04/04 07:20:38;;;;;;;15.60;6.32;;;6.30;99.90;;;;;;5053430;28;20025;-77
2022/04/04 07:23:05;;;;;;;13.75;6.40;;;6.40;99.90;;;;;;5053524;28;20025;-79
2022/04/04 07:25:31;;;;;;;13.18;6.97;;;6.50;99.90;;;;;;5053380;28;20040;-78
2022/04/04 07:27:56;;;;;;;11.63;6.40;;;6.70;99.90;;;;;;5052198;28;20029;-79
2022/04/04 07:30:23;;;;;;;19.42;7.85;;;6.70;99.90;;;;;;5053425;28;20036;-79
2022/04/04 07:32:50;;;;;;;10.45;5.45;;;6.70;99.90;;;;;;5051917;28;20044;-81
2022/04/04 07:35:17;;;;;;;14.20;7.85;;;6.80;99.90;;;;;;5052187;28;20031;-79
2022/04/04 07:37:44;;;;;;;10.60;7.57;;;6.90;99.90;;;;;;5053006;28;20037;-80
2022/04/04 07:40:12;;;;;;;11.95;7.05;;;7.10;99.90;;;;;;5051935;28;20037;-80
2022/04/04 07:42:39;;;;;;;18.00;6.80;;;7.00;99.90;;;;;;5052777;28;20032;-79
2022/04/04 07:45:06;;;;;;;18.50;8.18;;;7.00;99.90;;;;;;5053080;28;20091;-80
2022/04/04 07:47:32;;;;;;;15.75;6.75;;;6.90;99.90;;;;;;5052947;28;20474;-80
2022/04/04 07:49:58;;;;;;;19.35;7.88;;;7.00;99.90;;;;;;5052875;28;20032;-80
2022/04/04 07:52:25;;;;;;;14.50;6.10;;;7.10;99.90;;;;;;5052331;28;20025;-80
2022/04/04 07:54:51;;;;;;;17.80;6.65;;;7.10;99.90;;;;;;5053030;28;20028;-77
2022/04/04 07:57:17;;;;;;;15.48;8.65;;;7.10;99.90;;;;;;5052470;28;20037;-79
2022/04/04 07:59:43;;;;;;;20.98;7.72;;;7.20;99.90;;;;;;5052903;28;20382;-80
2022/04/04 08:02:09;;;;;;;10.75;7.22;;;7.30;99.90;;;;;;5052590;28;20048;-79
2022/04/04 08:04:34;;;;;;;13.82;5.80;;;7.30;99.90;;;;;;5034968;28;20032;-77
2022/04/04 08:07:00;;;;;;;31.70;8.45;;;7.30;99.90;;;;;;5052568;28;20049;-80
2022/04/04 08:09:26;;;;;;;11.07;5.90;;;7.50;99.90;;;;;;5052947;28;20046;-76
2022/04/04 08:11:54;;;;;;;14.82;7.70;;;7.40;99.90;;;;;;5052687;28;20033;-72
2022/04/04 08:14:21;;;;;;;13.25;7.20;;;7.30;99.90;;;;;;5052639;28;20024;-79
2022/04/04 08:16:47;;;;;;;29.95;10.23;;;7.40;99.90;;;;;;5052718;28;20174;-80
2022/04/04 08:19:13;;;;;;;20.38;8.25;;;7.30;99.90;;;;;;5051430;28;20473;-79
2022/04/04 08:21:41;;;;;;;25.45;10.73;;;7.30;99.90;;;;;;5052554;28;20131;-80
2022/04/04 08:24:08;;;;;;;18.85;8.40;;;7.30;99.90;;;;;;5051570;28;20041;-77
2022/04/04 08:26:35;;;;;;;31.67;9.10;;;7.20;99.90;;;;;;5051162;28;20040;-80
2022/04/04 08:29:01;;;;;;;20.33;9.02;;;7.30;99.90;;;;;;5052771;28;20440;-79
2022/04/04 08:31:27;;;;;;;12.52;7.10;;;7.30;99.90;;;;;;5052624;28;20037;-81
2022/04/04 08:33:53;;;;;;;18.48;6.00;;;7.30;99.90;;;;;;5052526;28;20040;-80
2022/04/04 08:36:19;;;;;;;17.38;6.70;;;7.30;99.90;;;;;;5052835;28;20086;-80
2022/04/04 08:38:45;;;;;;;15.57;7.57;;;7.20;99.90;;;;;;5052534;28;20021;-80
2022/04/04 08:41:11;;;;;;;18.27;8.30;;;7.30;99.90;;;;;;5052155;28;20366;-79
2022/04/04 08:43:39;;;;;;;17.42;8.30;;;7.30;99.90;;;;;;5052399;28;20075;-78
2022/04/04 08:46:07;;;;;;;16.83;7.05;;;7.40;99.90;;;;;;5052406;28;20061;-80
2022/04/04 08:48:39;;;;;;;18.50;7.82;;;7.40;99.90;;;;;;5052283;28;20017;-80
2022/04/04 08:51:09;;;;;;;19.77;7.57;;;7.40;99.90;;;;;;5052400;28;20082;-80
2022/04/04 08:53:39;;;;;;;15.32;6.63;;;7.30;99.90;;;;;;5052395;28;20131;-80
2022/04/04 08:56:06;;;;;;;21.15;8.68;;;7.30;99.90;;;;;;5050723;28;20029;-80
2022/04/04 08:58:33;;;;;;;23.45;8.05;;;7.30;99.90;;;;;;5052350;28;20021;-80
2022/04/04 09:01:00;;;;;;;27.45;9.98;;;7.40;99.90;;;;;;5052249;28;20367;-80
2022/04/04 09:03:31;;;;;;;18.88;6.55;;;7.30;99.90;;;;;;5053449;28;20041;-80
2022/04/04 09:06:05;;;;;;;20.60;12.32;;;7.20;99.90;;;;;;5056284;28;20116;-79
2022/04/04 09:08:46;;;;;;;23.35;9.27;;;7.30;99.90;;;;;;5055942;28;20052;-78
2022/04/04 09:11:13;;;;;;;21.30;6.57;;;7.20;99.90;;;;;;5055927;28;20119;-80
2022/04/04 09:13:39;;;;;;;17.42;9.23;;;7.20;99.90;;;;;;5055792;28;20036;-80
2022/04/04 09:16:08;;;;;;;20.60;8.80;;;7.20;99.90;;;;;;5055978;28;20037;-81
2022/04/04 09:18:37;;;;;;;14.25;7.75;;;7.20;99.90;;;;;;5055661;28;20029;-80
2022/04/04 09:21:14;;;;;;;17.45;8.45;;;7.20;99.90;;;;;;5055769;28;20108;-81
2022/04/04 09:23:42;;;;;;;13.52;8.32;;;7.20;99.90;;;;;;5055712;28;20028;-79
2022/04/04 09:26:37;;;;;;;18.38;10.75;;;7.30;99.90;;;;;;5054099;28;20095;-79
2022/04/04 09:29:20;;;;;;;24.23;9.35;;;7.20;99.90;;;;;;5055560;28;20029;-72
2022/04/04 09:32:10;;;;;;;16.58;7.80;;;7.20;99.90;;;;;;5055647;28;20025;-74
2022/04/04 09:34:53;;;;;;;13.85;7.60;;;7.00;99.90;;;;;;5055440;28;20067;-81
2022/04/04 09:37:21;;;;;;;25.48;8.93;;;7.00;99.90;;;;;;5055574;28;20041;-80
2022/04/04 09:39:51;;;;;;;19.13;9.48;;;7.00;99.90;;;;;;5055003;28;20027;-78
2022/04/04 09:42:18;;;;;;;16.10;8.95;;;7.00;99.90;;;;;;5055392;28;20084;-80
2022/04/04 09:45:12;;;;;;;10.43;6.28;;;7.10;99.90;;;;;;5055702;28;20446;-81
2022/04/04 09:47:49;;;;;;;14.75;8.43;;;7.00;99.90;;;;;;5055122;28;20125;-80
2022/04/04 09:50:32;;;;;;;16.05;8.65;;;7.00;99.90;;;;;;5055019;28;20037;-80
2022/04/04 09:52:58;;;;;;;;;;;6.90;99.90;;;;;;5055475;28;20036;-77
2022/04/04 09:55:28;;;;;;;16.00;7.90;;;7.00;99.90;;;;;;5055045;28;20332;-78
2022/04/04 09:57:58;;;;;;;13.82;6.50;;;6.90;99.90;;;;;;5053907;28;20058;-78
2022/04/04 10:00:24;;;;;;;11.60;6.55;;;6.90;99.90;;;;;;5055210;28;20109;-77
2022/04/04 10:02:53;;;;;;;19.63;8.43;;;6.90;99.90;;;;;;5054995;28;20047;-78
2022/04/04 10:05:21;;;;;;;12.98;7.30;;;6.90;99.90;;;;;;5054916;28;20033;-79
2022/04/04 10:07:48;;;;;;;10.10;5.50;;;6.90;99.90;;;;;;5053264;28;20400;-77
2022/04/04 10:10:15;;;;;;;13.43;8.13;;;6.80;99.90;;;;;;5054953;28;20048;-77
2022/04/04 10:12:42;;;;;;;12.38;6.10;;;6.70;99.90;;;;;;5054853;28;20109;-78
2022/04/04 10:15:09;;;;;;;17.45;7.38;;;6.60;99.90;;;;;;5053969;28;20029;-77
2022/04/04 10:17:34;;;;;;;11.57;8.43;;;6.60;99.90;;;;;;5054818;28;20061;-75
2022/04/04 10:20:01;;;;;;;17.92;7.85;;;6.60;99.90;;;;;;5054646;28;20056;-75
2022/04/04 10:22:27;;;;;;;15.27;9.65;;;6.60;99.90;;;;;;5054373;28;20486;-80
2022/04/04 10:24:56;;;;;;;13.32;7.57;;;6.50;99.90;;;;;;5054395;28;20021;-79
2022/04/04 10:27:22;;;;;;;15.10;8.23;;;6.50;99.90;;;;;;5054365;28;20017;-81
2022/04/04 10:29:48;;;;;;;13.90;8.85;;;6.50;99.90;;;;;;5054605;28;20470;-80
2022/04/04 10:32:25;;;;;;;15.13;9.13;;;6.50;99.90;;;;;;5054376;28;20036;-82
2022/04/04 10:34:51;;;;;;;19.88;8.45;;;6.50;99.90;;;;;;5054205;28;20048;-77
2022/04/04 10:37:19;;;;;;;12.45;9.02;;;6.50;99.90;;;;;;5053617;28;20029;-80
2022/04/04 10:39:49;;;;;;;13.82;7.88;;;6.60;99.90;;;;;;5054220;28;20040;-81
2022/04/04 10:42:38;;;;;;;17.50;9.45;;;6.50;99.90;;;;;;5052815;28;20119;-82
2022/04/04 10:45:09;;;;;;;14.98;7.32;;;6.60;99.90;;;;;;5054093;28;20032;-82
2022/04/04 10:47:39;;;;;;;17.17;9.48;;;6.60;99.90;;;;;;5052624;28;20160;-77
2022/04/04 10:50:28;;;;;;;14.98;7.50;;;6.60;99.90;;;;;;5054049;28;20029;-82
2022/04/04 10:52:59;;;;;;;13.15;9.38;;;6.50;99.90;;;;;;5053854;28;20066;-81
2022/04/04 10:55:36;;;;;;;15.85;9.15;;;6.50;99.90;;;;;;5054161;28;20422;-82
2022/04/04 10:58:12;;;;;;;23.42;9.25;;;6.50;99.90;;;;;;5053767;28;20029;-82
2022/04/04 11:01:14;;;;;;;14.25;6.63;;;6.50;99.90;;;;;;5053972;28;20417;-82
2022/04/04 11:03:42;;;;;;;14.80;8.13;;;6.60;99.90;;;;;;5054175;28;20040;-81
2022/04/04 11:09:22;;;;;;;12.95;6.70;;;6.60;99.90;;;;;;5052288;28;20508;-84
2022/04/04 11:12:08;;;;;;;19.63;8.80;;;6.60;99.90;;;;;;5053514;28;20074;-84
2022/04/04 11:14:39;;;;;;;7.80;5.35;;;6.60;99.90;;;;;;5052342;28;20029;-83
2022/04/04 11:19:57;;;;;;;13.20;5.95;;;6.50;99.90;;;;;;5053617;28;20032;-77
2022/04/04 11:22:34;;;;;;;12.68;8.68;;;6.50;99.90;;;;;;5052100;28;20041;-83
2022/04/04 11:25:03;;;;;;;14.88;8.88;;;6.50;99.90;;;;;;5053090;28;20033;-84
2022/04/04 11:27:39;;;;;;;13.55;7.57;;;6.60;99.90;;;;;;5052247;28;20366;-78
2022/04/04 11:30:13;;;;;;;10.70;5.57;;;6.50;99.90;;;;;;5053299;28;20379;-78
2022/04/04 11:32:42;;;;;;;17.13;7.30;;;6.50;99.90;;;;;;5051976;28;20021;-77
2022/04/04 11:35:11;;;;;;;11.80;6.45;;;6.60;99.90;;;;;;5053026;28;20025;-81
2022/04/04 11:37:50;;;;;;;12.63;6.18;;;6.60;99.90;;;;;;5052898;28;20569;-76
2022/04/04 11:40:18;;;;;;;11.00;7.10;;;6.60;99.90;;;;;;5052846;28;20033;-78
2022/04/04 11:42:51;;;;;;;10.70;7.28;;;6.60;99.90;;;;;;5052986;28;20458;-79
2022/04/04 11:45:28;;;;;;;11.38;9.05;;;6.60;99.90;;;;;;5053123;28;20075;-74
2022/04/04 11:48:02;;;;;;;12.15;6.97;;;6.70;99.90;;;;;;5052839;28;20228;-77
2022/04/04 11:50:30;;;;;;;16.25;8.85;;;6.60;99.90;;;;;;5052841;28;20118;-81
2022/04/04 11:53:05;;;;;;;14.48;7.85;;;6.70;99.90;;;;;;5051699;28;20025;-80
2022/04/04 11:55:33;;;;;;;13.73;8.35;;;6.70;99.90;;;;;;5053068;28;20100;-79
2022/04/04 11:58:09;;;;;;;12.32;8.02;;;6.70;99.90;;;;;;5051610;28;20043;-78
2022/04/04 12:00:37;;;;;;;17.02;10.63;;;6.60;99.90;;;;;;5052944;28;20106;-80
2022/04/04 12:03:10;;;;;;;12.25;8.88;;;6.80;99.90;;;;;;5052517;28;20041;-79
2022/04/04 12:05:38;;;;;;;17.05;10.02;;;6.80;99.90;;;;;;5052878;28;20037;-76
2022/04/04 12:08:06;;;;;;;10.85;7.75;;;6.80;99.90;;;;;;5052627;28;20033;-79
2022/04/04 12:10:35;;;;;;;14.77;8.82;;;6.70;99.90;;;;;;5052851;28;20028;-78
2022/04/04 12:13:09;;;;;;;16.58;10.25;;;6.80;99.90;;;;;;5052700;28;20048;-76
2022/04/04 12:15:37;;;;;;;12.45;9.20;;;6.80;99.90;;;;;;5052556;28;20456;-75
2022/04/04 12:18:04;;;;;;;16.38;10.85;;;6.80;99.90;;;;;;5052423;28;20082;-78
2022/04/04 12:20:38;;;;;;;18.55;9.40;;;6.80;99.90;;;;;;5052741;28;20029;-78
2022/04/04 12:25:53;;;;;;;17.35;10.20;;;6.80;99.90;;;;;;5051489;28;20028;-77
2022/04/04 12:28:28;;;;;;;14.00;7.65;;;6.80;99.90;;;;;;5052477;28;20033;-78
2022/04/04 12:30:55;;;;;;;12.27;7.68;;;6.80;99.90;;;;;;5052640;28;20517;-76
2022/04/04 12:33:32;;;;;;;17.98;10.98;;;6.80;99.90;;;;;;5052375;28;20112;-76
2022/04/04 12:35:59;;;;;;;13.82;10.73;;;6.90;99.90;;;;;;5051345;28;20029;-81
2022/04/04 12:38:41;;;;;;;18.73;12.07;;;6.80;99.90;;;;;;5052485;28;20112;-82
2022/04/04 12:41:08;;;;;;;;;;;6.80;99.90;;;;;;5056924;28;20040;-79
2022/04/04 12:43:38;;;;;;;14.68;6.82;;;6.80;99.90;;;;;;5056494;28;20007;-74
2022/04/04 12:46:06;;;;;;;16.42;10.52;;;6.80;99.90;;;;;;5056374;28;20056;-82
2022/04/04 12:48:37;;;;;;;17.02;10.98;;;6.80;99.90;;;;;;5055964;28;20021;-78
2022/04/04 12:51:03;;;;;;;15.48;11.10;;;6.80;99.90;;;;;;5056332;28;20052;-79
2022/04/04 12:53:44;;;;;;;14.02;8.73;;;6.90;99.90;;;;;;5056208;28;20052;-82
2022/04/04 12:56:11;;;;;;;14.05;7.97;;;6.80;99.90;;;;;;5056093;28;20056;-79
2022/04/04 12:58:37;;;;;;;14.52;9.98;;;6.80;99.90;;;;;;5056087;28;20045;-80
2022/04/04 13:01:16;;;;;;;12.90;8.98;;;6.70;99.90;;;;;;5054930;28;20035;-75
2022/04/04 13:03:50;;;;;;;19.15;11.40;;;6.80;99.90;;;;;;5055627;28;20029;-83
2022/04/04 13:06:17;;;;;;;17.08;12.98;;;6.90;99.90;;;;;;5056194;28;20408;-80